createdAt,value
2018-04-02T00:01:55.374Z,61.35
2018-04-02T00:04:23.626Z,65.47
2018-04-02T00:06:51.892Z,63.20
2018-04-02T00:09:20.912Z,64.15
2018-04-02T00:11:49.162Z,69.70
2018-04-02T00:14:17.422Z,66.07
2018-04-02T00:16:45.670Z,69.07
2018-04-02T00:19:14.022Z,65.28
2018-04-02T00:21:42.296Z,67.95
2018-04-02T00:24:10.568Z,65.90
2018-04-02T00:26:38.808Z,63.28
2018-04-02T00:29:07.842Z,59.58
2018-04-02T00:31:36.150Z,62.62
2018-04-02T00:34:05.108Z,64.10
2018-04-02T00:36:33.365Z,61.20
2018-04-02T00:39:01.611Z,64.70
2018-04-02T00:41:30.626Z,63.80
2018-04-02T00:43:58.870Z,62.88
2018-04-02T00:46:27.126Z,64.50
2018-04-02T00:48:55.384Z,64.28
2018-04-02T00:51:23.641Z,72.82
2018-04-02T00:53:51.885Z,69.30
2018-04-02T00:56:20.893Z,64.12
2018-04-02T00:58:49.145Z,66.47
2018-04-02T01:01:18.158Z,58.10
2018-04-02T01:03:46.458Z,57.40
2018-04-02T01:06:14.697Z,53.25
2018-04-02T01:08:43.015Z,53.00
2018-04-02T01:11:11.290Z,51.45
2018-04-02T01:13:39.558Z,46.37
2018-04-02T01:16:07.842Z,43.53
2018-04-02T01:18:36.097Z,41.65
2018-04-02T01:21:04.353Z,40.58
2018-04-02T01:23:33.370Z,39.45
2018-04-02T01:26:01.619Z,43.92
2018-04-02T01:28:30.654Z,46.13
2018-04-02T01:30:58.901Z,44.20
2018-04-02T01:33:27.197Z,43.95
2018-04-02T01:35:55.446Z,42.03
2018-04-02T01:38:23.689Z,46.55
2018-04-02T01:40:51.945Z,40.88
2018-04-02T01:43:20.190Z,43.72
2018-04-02T01:45:48.446Z,39.03
2018-04-02T01:48:16.694Z,41.50
2018-04-02T01:50:45.741Z,37.63
2018-04-02T01:53:13.986Z,43.85
2018-04-02T01:55:42.265Z,41.47
2018-04-02T01:58:10.572Z,40.42
2018-04-02T02:00:38.842Z,37.63
2018-04-02T02:03:07.109Z,42.10
2018-04-02T02:05:35.361Z,38.88
2018-04-02T02:08:04.394Z,41.08
2018-04-02T02:10:32.634Z,51.58
2018-04-02T02:13:00.888Z,44.75
2018-04-02T02:15:29.929Z,45.28
2018-04-02T02:17:58.201Z,53.33
2018-04-02T02:20:26.450Z,45.17
2018-04-02T02:22:54.798Z,37.83
2018-04-02T02:25:23.049Z,42.15
2018-04-02T02:27:52.090Z,44.05
2018-04-02T02:30:20.344Z,41.67
2018-04-02T02:32:48.594Z,37.33
2018-04-02T02:35:16.857Z,39.25
2018-04-02T02:37:45.111Z,41.22
2018-04-02T02:40:13.374Z,43.97
2018-04-02T02:42:41.679Z,37.00
2018-04-02T02:45:09.948Z,38.63
2018-04-02T02:47:38.190Z,39.17
2018-04-02T02:50:06.510Z,35.38
2018-04-02T02:52:34.789Z,35.42
2018-04-02T02:55:03.068Z,36.03
2018-04-02T02:57:31.325Z,32.90
2018-04-02T02:59:59.607Z,36.20
2018-04-02T03:02:27.869Z,38.60
2018-04-02T03:04:56.206Z,39.35
2018-04-02T03:07:25.253Z,33.15
2018-04-02T03:09:53.506Z,35.58
2018-04-02T03:12:21.773Z,33.88
2018-04-02T03:14:50.019Z,33.45
2018-04-02T03:17:19.075Z,38.10
2018-04-02T03:19:47.322Z,32.08
2018-04-02T03:22:15.573Z,35.50
2018-04-02T03:24:44.606Z,30.23
2018-04-02T03:27:12.877Z,31.62
2018-04-02T03:29:41.142Z,33.55
2018-04-02T03:32:09.785Z,34.22
2018-04-02T03:34:38.117Z,33.55
2018-04-02T03:37:06.378Z,34.60
2018-04-02T03:39:34.649Z,30.42
2018-04-02T03:42:02.902Z,34.75
2018-04-02T03:44:31.934Z,29.20
2018-04-02T03:47:00.916Z,31.52
2018-04-02T03:49:29.209Z,29.67
2018-04-02T03:51:57.466Z,28.62
2018-04-02T03:54:25.726Z,29.17
2018-04-02T03:56:53.973Z,28.60
2018-04-02T03:59:22.219Z,27.48
2018-04-02T04:01:50.479Z,28.55
2018-04-02T04:04:18.726Z,29.23
2018-04-02T04:06:47.000Z,26.75
2018-04-02T04:09:15.244Z,25.50
2018-04-02T04:11:43.490Z,24.60
2018-04-02T04:14:11.742Z,25.35
2018-04-02T04:16:40.036Z,23.75
2018-04-02T04:19:08.285Z,25.08
2018-04-02T04:21:36.539Z,25.20
2018-04-02T04:24:05.553Z,24.20
2018-04-02T04:26:33.798Z,24.60
2018-04-02T04:29:02.837Z,24.80
2018-04-02T04:31:31.090Z,23.77
2018-04-02T04:33:59.387Z,24.37
2018-04-02T04:36:27.666Z,27.15
2018-04-02T04:38:55.905Z,25.33
2018-04-02T04:41:24.162Z,26.37
2018-04-02T04:43:52.409Z,25.92
2018-04-02T04:46:20.765Z,24.23
2018-04-02T04:48:49.039Z,21.98
2018-04-02T04:51:17.313Z,25.40
2018-04-02T04:53:45.563Z,23.00
2018-04-02T04:56:13.869Z,23.70
2018-04-02T04:58:42.146Z,25.58
2018-04-02T05:01:10.394Z,25.52
2018-04-02T05:03:38.693Z,26.08
2018-04-02T05:06:06.946Z,26.17
2018-04-02T05:08:35.602Z,26.37
2018-04-02T05:11:03.934Z,25.35
2018-04-02T05:13:32.202Z,30.17
2018-04-02T05:16:00.481Z,42.28
2018-04-02T05:18:28.754Z,41.22
2018-04-02T05:20:56.991Z,32.53
2018-04-02T05:23:26.001Z,31.50
2018-04-02T05:25:54.270Z,37.00
2018-04-02T05:28:22.583Z,34.75
2018-04-02T05:30:50.854Z,34.65
2018-04-02T05:33:19.099Z,36.15
2018-04-02T05:35:47.402Z,44.33
2018-04-02T05:38:15.658Z,55.12
2018-04-02T05:40:43.957Z,48.33
2018-04-02T05:43:12.201Z,55.47
2018-04-02T05:45:40.514Z,48.45
2018-04-02T05:48:08.777Z,48.35
2018-04-02T05:50:37.033Z,48.92
2018-04-02T05:53:05.330Z,47.62
2018-04-02T05:55:33.578Z,46.95
2018-04-02T05:58:01.837Z,53.95
2018-04-02T06:00:30.877Z,49.72
2018-04-02T06:02:59.132Z,50.50
2018-04-02T06:05:27.421Z,49.72
2018-04-02T06:07:55.702Z,49.28
2018-04-02T06:10:23.953Z,50.65
2018-04-02T06:12:53.166Z,49.92
2018-04-02T06:15:21.408Z,48.55
2018-04-02T06:17:50.445Z,46.08
2018-04-02T06:20:18.714Z,48.47
2018-04-02T06:22:46.991Z,48.22
2018-04-02T06:25:15.267Z,41.90
2018-04-02T06:27:43.514Z,41.10
2018-04-02T06:30:11.774Z,43.50
2018-04-02T06:32:40.832Z,39.17
2018-04-02T06:35:09.082Z,37.13
2018-04-02T06:37:37.331Z,41.20
2018-04-02T06:40:05.607Z,44.13
2018-04-02T06:42:33.914Z,41.35
2018-04-02T06:45:02.162Z,39.67
2018-04-02T06:47:30.418Z,40.60
2018-04-02T06:49:59.458Z,40.42
2018-04-02T06:52:27.713Z,38.65
2018-04-02T06:54:55.957Z,42.92
2018-04-02T06:57:24.997Z,44.65
2018-04-02T06:59:53.246Z,41.92
2018-04-02T07:02:21.502Z,43.33
2018-04-02T07:04:50.537Z,40.38
2018-04-02T07:07:18.918Z,40.92
2018-04-02T07:09:47.197Z,40.58
2018-04-02T07:12:15.439Z,41.37
2018-04-02T07:14:43.704Z,43.22
2018-04-02T07:17:12.714Z,40.45
2018-04-02T07:19:41.011Z,41.50
2018-04-02T07:22:09.270Z,45.55
2018-04-02T07:24:37.561Z,42.47
2018-04-02T07:27:05.810Z,39.55
2018-04-02T07:29:34.090Z,42.62
2018-04-02T07:32:02.391Z,43.58
2018-04-02T07:34:30.613Z,40.85
2018-04-02T07:36:59.657Z,42.45
2018-04-02T07:39:28.110Z,37.80
2018-04-02T07:41:56.381Z,38.90
2018-04-02T07:44:24.748Z,44.00
2018-04-02T07:46:52.950Z,42.67
2018-04-02T07:49:21.198Z,38.80
2018-04-02T07:51:50.329Z,41.42
2018-04-02T07:54:18.614Z,40.03
2018-04-02T07:56:46.994Z,40.88
2018-04-02T07:59:15.247Z,37.63
2018-04-02T08:01:43.509Z,40.55
2018-04-02T08:04:11.805Z,39.67
2018-04-02T08:06:40.058Z,42.97
2018-04-02T08:09:08.364Z,38.75
2018-04-02T08:11:36.657Z,40.80
2018-04-02T08:14:04.878Z,39.30
2018-04-02T08:16:33.189Z,40.30
2018-04-02T08:19:01.445Z,42.70
2018-04-02T08:21:29.733Z,40.63
2018-04-02T08:23:58.005Z,40.83
2018-04-02T08:26:26.278Z,37.53
2018-04-02T08:28:54.562Z,41.28
2018-04-02T08:31:22.841Z,40.70
2018-04-02T08:33:51.109Z,41.05
2018-04-02T08:36:19.387Z,39.10
2018-04-02T08:38:47.718Z,39.13
2018-04-02T08:41:15.953Z,41.30
2018-04-02T08:43:44.227Z,40.10
2018-04-02T08:46:12.482Z,39.20
2018-04-02T08:48:40.743Z,39.57
2018-04-02T08:51:09.037Z,41.70
2018-04-02T08:53:37.313Z,39.00
2018-04-02T08:56:05.574Z,38.13
2018-04-02T08:58:33.842Z,44.08
2018-04-02T09:01:02.150Z,40.12
2018-04-02T09:03:30.406Z,41.70
2018-04-02T09:05:58.661Z,42.67
2018-04-02T09:08:26.909Z,39.80
2018-04-02T09:10:55.162Z,41.50
2018-04-02T09:13:23.418Z,42.05
2018-04-02T09:15:51.706Z,38.85
2018-04-02T09:18:19.977Z,35.65
2018-04-02T09:20:48.245Z,42.03
2018-04-02T09:23:16.507Z,41.90
2018-04-02T09:25:44.766Z,40.97
2018-04-02T09:28:13.014Z,42.03
2018-04-02T09:30:41.730Z,38.83
2018-04-02T09:33:10.772Z,39.05
2018-04-02T09:35:39.016Z,44.15
2018-04-02T09:38:07.314Z,45.00
2018-04-02T09:40:35.574Z,43.75
2018-04-02T09:43:03.850Z,44.83
2018-04-02T09:45:32.097Z,44.80
2018-04-02T09:48:00.382Z,42.30
2018-04-02T09:50:28.647Z,43.13
2018-04-02T09:52:57.681Z,42.10
2018-04-02T09:55:25.945Z,42.20
2018-04-02T09:57:54.221Z,42.78
2018-04-02T10:00:28.154Z,40.17
2018-04-02T10:02:56.418Z,39.83
2018-04-02T10:05:24.700Z,43.00
2018-04-02T10:07:52.966Z,38.67
2018-04-02T10:10:21.321Z,44.73
2018-04-02T10:12:49.502Z,38.30
2018-04-02T10:15:17.782Z,37.53
2018-04-02T10:17:46.059Z,38.77
2018-04-02T10:20:14.678Z,37.27
2018-04-02T10:22:43.005Z,37.03
2018-04-02T10:25:11.298Z,35.07
2018-04-02T10:27:39.573Z,34.43
2018-04-02T10:30:07.846Z,34.53
2018-04-02T10:32:36.122Z,33.70
2018-04-02T10:35:04.380Z,34.27
2018-04-02T10:37:32.655Z,34.47
2018-04-02T10:40:00.949Z,36.60
2018-04-02T10:42:29.209Z,33.57
2018-04-02T10:44:57.500Z,35.07
2018-04-02T10:47:25.801Z,33.77
2018-04-02T10:49:54.050Z,33.60
2018-04-02T10:52:22.297Z,35.30
2018-04-02T10:54:50.561Z,34.97
2018-04-02T10:57:18.878Z,35.40
2018-04-02T10:59:47.259Z,34.97
2018-04-02T11:02:15.525Z,33.00
2018-04-02T11:04:43.791Z,36.20
2018-04-02T11:07:12.078Z,37.17
2018-04-02T11:09:40.344Z,32.50
2018-04-02T11:12:08.633Z,36.63
2018-04-02T11:14:36.904Z,37.65
2018-04-02T11:17:05.169Z,38.40
2018-04-02T11:19:33.429Z,40.70
2018-04-02T11:22:01.733Z,39.42
2018-04-02T11:24:30.008Z,35.65
2018-04-02T11:26:58.257Z,35.47
2018-04-02T11:29:26.518Z,34.75
2018-04-02T11:31:54.793Z,36.78
2018-04-02T11:34:23.052Z,35.60
2018-04-02T11:36:52.075Z,33.57
2018-04-02T11:39:20.337Z,36.60
2018-04-02T11:41:48.646Z,33.43
2018-04-02T11:44:16.935Z,32.95
2018-04-02T11:46:45.237Z,37.05
2018-04-02T11:49:13.478Z,34.03
2018-04-02T11:51:41.849Z,33.83
2018-04-02T11:54:10.130Z,35.63
2018-04-02T11:56:38.414Z,36.60
2018-04-02T11:59:06.670Z,36.00
2018-04-02T12:01:34.999Z,37.17
2018-04-02T12:04:03.287Z,37.53
2018-04-02T12:06:31.489Z,38.55
2018-04-02T12:08:59.786Z,37.00
2018-04-02T12:11:28.046Z,35.80
2018-04-02T12:13:56.341Z,36.03
2018-04-02T12:16:24.604Z,32.28
2018-04-02T12:18:52.886Z,33.85
2018-04-02T12:21:21.165Z,36.45
2018-04-02T12:23:49.439Z,32.70
2018-04-02T12:26:17.709Z,33.53
2018-04-02T12:28:45.979Z,35.70
2018-04-02T12:31:14.650Z,35.47
2018-04-02T12:33:42.917Z,36.55
2018-04-02T12:36:11.177Z,28.33
2018-04-02T12:38:40.305Z,29.40
2018-04-02T12:41:08.598Z,30.40
2018-04-02T12:43:36.965Z,30.85
2018-04-02T12:46:05.244Z,30.75
2018-04-02T12:48:33.525Z,30.23
2018-04-02T12:51:01.782Z,34.10
2018-04-02T12:53:30.050Z,30.88
2018-04-02T12:55:59.908Z,33.88
2018-04-02T12:58:28.266Z,32.33
2018-04-02T13:00:56.548Z,28.85
2018-04-02T13:03:24.817Z,25.75
2018-04-02T13:05:53.079Z,25.12
2018-04-02T13:08:21.338Z,23.52
2018-04-02T13:10:49.651Z,23.27
2018-04-02T13:13:17.910Z,21.80
2018-04-02T13:15:46.191Z,21.60
2018-04-02T13:18:14.465Z,18.80
2018-04-02T13:20:42.723Z,20.23
2018-04-02T13:23:11.018Z,17.23
2018-04-02T13:25:39.281Z,17.20
2018-04-02T13:28:07.546Z,19.33
2018-04-02T13:30:35.802Z,16.47
2018-04-02T13:33:04.860Z,15.90
2018-04-02T13:35:33.089Z,18.00
2018-04-02T13:38:01.372Z,19.10
2018-04-02T13:40:29.626Z,17.33
2018-04-02T13:42:57.933Z,18.27
2018-04-02T13:45:26.198Z,21.00
2018-04-02T13:47:54.472Z,19.85
2018-04-02T13:50:22.761Z,19.23
2018-04-02T13:52:51.041Z,19.03
2018-04-02T13:55:19.541Z,19.43
2018-04-02T13:57:47.798Z,17.53
2018-04-02T14:00:16.063Z,17.93
2018-04-02T14:02:44.332Z,17.15
2018-04-02T14:05:12.593Z,18.50
2018-04-02T14:07:40.854Z,19.02
2018-04-02T14:10:09.137Z,18.27
2018-04-02T14:12:37.449Z,17.58
2018-04-02T14:15:05.822Z,21.52
2018-04-02T14:17:34.102Z,18.92
2018-04-02T14:20:02.382Z,20.37
2018-04-02T14:22:30.637Z,19.83
2018-04-02T14:24:58.897Z,19.25
2018-04-02T14:27:27.198Z,18.98
2018-04-02T14:29:55.466Z,18.80
2018-04-02T14:32:23.726Z,20.92
2018-04-02T14:34:52.029Z,21.42
2018-04-02T14:37:20.914Z,19.00
2018-04-02T14:39:49.181Z,19.92
2018-04-02T14:42:17.681Z,30.10
2018-04-02T14:44:46.049Z,17.20
2018-04-02T14:47:14.311Z,22.23
2018-04-02T14:49:42.587Z,17.97
2018-04-02T14:52:10.911Z,19.12
2018-04-02T14:54:39.950Z,19.08
2018-04-02T14:57:08.245Z,18.63
2018-04-02T14:59:36.517Z,18.20
2018-04-02T15:02:04.799Z,16.87
2018-04-02T15:04:33.074Z,19.87
2018-04-02T15:07:01.353Z,16.27
2018-04-02T15:09:29.625Z,17.97
2018-04-02T15:11:57.878Z,16.60
2018-04-02T15:14:26.133Z,17.03
2018-04-02T15:16:55.205Z,18.20
2018-04-02T15:19:23.551Z,16.37
2018-04-02T15:21:51.826Z,16.37
2018-04-02T15:24:20.097Z,15.40
2018-04-02T15:26:48.358Z,16.30
2018-04-02T15:29:17.649Z,19.30
2018-04-02T15:31:45.955Z,18.23
2018-04-02T15:34:14.327Z,14.23
2018-04-02T15:36:42.574Z,15.53
2018-04-02T15:39:10.877Z,16.33
2018-04-02T15:41:39.133Z,14.00
2018-04-02T15:44:08.245Z,13.95
2018-04-02T15:46:37.239Z,15.60
2018-04-02T15:49:05.506Z,13.52
2018-04-02T15:51:33.777Z,14.15
2018-04-02T15:54:02.069Z,15.77
2018-04-02T15:56:31.196Z,14.55
2018-04-02T15:58:59.572Z,16.02
2018-04-02T16:01:27.913Z,13.95
2018-04-02T16:03:56.186Z,15.00
2018-04-02T16:06:24.466Z,13.25
2018-04-02T16:08:52.725Z,14.48
2018-04-02T16:11:21.042Z,12.15
2018-04-02T16:13:49.264Z,12.85
2018-04-02T16:16:17.543Z,11.68
2018-04-02T16:18:46.558Z,11.90
2018-04-02T16:21:14.838Z,13.43
2018-04-02T16:23:43.126Z,14.55
2018-04-02T16:26:11.401Z,10.00
2018-04-02T16:28:39.757Z,11.63
2018-04-02T16:31:08.019Z,11.43
2018-04-02T16:33:36.277Z,13.40
2018-04-02T16:36:04.532Z,12.32
2018-04-02T16:38:33.620Z,14.15
2018-04-02T16:41:01.851Z,12.18
2018-04-02T16:43:30.098Z,13.23
2018-04-02T16:45:58.374Z,15.88
2018-04-02T16:48:26.669Z,14.98
2018-04-02T16:50:55.678Z,14.18
2018-04-02T16:53:23.954Z,13.82
2018-04-02T16:55:52.238Z,12.88
2018-04-02T16:58:20.485Z,13.52
2018-04-02T17:00:48.813Z,15.13
2018-04-02T17:03:17.056Z,15.05
2018-04-02T17:05:45.325Z,15.02
2018-04-02T17:08:13.597Z,14.07
2018-04-02T17:10:41.973Z,14.38
2018-04-02T17:13:10.292Z,15.60
2018-04-02T17:15:38.533Z,15.60
2018-04-02T17:18:06.813Z,16.27
2018-04-02T17:20:35.087Z,15.82
2018-04-02T17:23:03.354Z,13.82
2018-04-02T17:25:31.594Z,15.23
2018-04-02T17:27:59.874Z,14.98
2018-04-02T17:30:28.220Z,15.55
2018-04-02T17:32:56.457Z,15.30
2018-04-02T17:35:24.715Z,14.73
2018-04-02T17:37:52.965Z,14.13
2018-04-02T17:40:22.048Z,13.75
2018-04-02T17:42:50.277Z,14.07
2018-04-02T17:45:18.558Z,13.30
2018-04-02T17:47:46.804Z,13.65
2018-04-02T17:50:15.058Z,13.40
2018-04-02T17:52:44.073Z,13.65
2018-04-02T17:55:12.365Z,14.52
2018-04-02T17:57:42.157Z,13.13
2018-04-02T18:00:10.413Z,13.23
2018-04-02T18:02:39.554Z,13.18
2018-04-02T18:05:07.798Z,14.35
2018-04-02T18:07:36.098Z,15.57
2018-04-02T18:10:05.056Z,13.43
2018-04-02T18:12:34.076Z,13.55
2018-04-02T18:15:02.309Z,14.20
2018-04-02T18:17:31.381Z,13.13
2018-04-02T18:19:59.730Z,12.27
2018-04-02T18:22:28.002Z,13.93
2018-04-02T18:24:56.321Z,13.23
2018-04-02T18:27:25.074Z,12.82
2018-04-02T18:29:53.309Z,14.73
2018-04-02T18:32:23.154Z,12.85
2018-04-02T18:34:51.398Z,11.95
2018-04-02T18:37:19.710Z,13.48
2018-04-02T18:39:47.953Z,11.88
2018-04-02T18:42:16.202Z,12.37
2018-04-02T18:44:44.806Z,16.37
2018-04-02T18:47:13.817Z,11.82
2018-04-02T18:49:42.177Z,10.60
2018-04-02T18:52:11.222Z,11.98
2018-04-02T18:54:39.441Z,13.65
2018-04-02T18:57:08.459Z,13.68
2018-04-02T18:59:36.702Z,14.98
2018-04-02T19:02:06.350Z,13.70
2018-04-02T19:04:34.624Z,12.32
2018-04-02T19:07:02.901Z,12.60
2018-04-02T19:09:31.217Z,13.52
2018-04-02T19:11:59.443Z,14.60
2018-04-02T19:14:27.771Z,13.38
2018-04-02T19:16:55.962Z,11.07
2018-04-02T19:19:24.973Z,13.95
2018-04-02T19:21:54.100Z,12.90
2018-04-02T19:24:22.404Z,12.80
2018-04-02T19:26:50.678Z,13.13
2018-04-02T19:29:18.906Z,12.25
2018-04-02T19:31:47.198Z,13.02
2018-04-02T19:34:15.466Z,12.35
2018-04-02T19:36:43.730Z,11.85
2018-04-02T19:39:12.114Z,13.60
2018-04-02T19:41:40.357Z,11.95
2018-04-02T19:44:09.367Z,13.55
2018-04-02T19:46:38.486Z,12.15
2018-04-02T19:49:06.732Z,11.90
2018-04-02T19:51:35.030Z,9.82
2018-04-02T19:54:04.227Z,12.55
2018-04-02T19:56:32.470Z,9.48
2018-04-02T19:59:01.476Z,9.00
2018-04-02T20:01:29.772Z,10.38
2018-04-02T20:03:58.045Z,9.98
2018-04-02T20:06:26.306Z,10.23
2018-04-02T20:08:55.450Z,7.78
2018-04-02T20:11:23.794Z,8.32
2018-04-02T20:13:52.137Z,11.00
2018-04-02T20:16:22.161Z,8.90
2018-04-02T20:18:50.414Z,9.43
2018-04-02T20:21:18.650Z,9.07
2018-04-02T20:23:46.931Z,12.98
2018-04-02T20:26:15.182Z,9.00
2018-04-02T20:28:43.453Z,7.80
2018-04-02T20:31:11.737Z,9.60
2018-04-02T20:33:40.019Z,8.68
2018-04-02T20:36:08.270Z,9.75
2018-04-02T20:38:36.567Z,9.68
2018-04-02T20:41:04.810Z,11.07
2018-04-02T20:43:33.113Z,8.93
2018-04-02T20:46:01.434Z,9.07
2018-04-02T20:48:29.673Z,10.50
2018-04-02T20:50:57.949Z,9.38
2018-04-02T20:53:26.206Z,9.68
2018-04-02T20:55:54.447Z,9.55
2018-04-02T20:58:22.770Z,11.27
2018-04-02T21:00:51.009Z,8.32
2018-04-02T21:03:20.025Z,11.18
2018-04-02T21:05:48.314Z,8.05
2018-04-02T21:08:16.590Z,8.45
2018-04-02T21:10:44.825Z,8.45
2018-04-02T21:13:13.889Z,8.77
2018-04-02T21:15:42.645Z,8.98
2018-04-02T21:18:10.918Z,8.43
2018-04-02T21:20:39.194Z,7.68
2018-04-02T21:23:07.470Z,7.57
2018-04-02T21:25:35.742Z,8.88
2018-04-02T21:28:03.977Z,8.48
2018-04-02T21:30:32.983Z,9.70
2018-04-02T21:33:01.983Z,8.20
2018-04-02T21:35:30.225Z,11.32
2018-04-02T21:37:59.332Z,8.93
2018-04-02T21:40:27.517Z,11.32
2018-04-02T21:42:56.538Z,8.20
2018-04-02T21:45:24.821Z,8.27
2018-04-02T21:47:53.058Z,8.82
2018-04-02T21:50:22.086Z,9.18
2018-04-02T21:52:50.358Z,7.90
2018-04-02T21:55:18.590Z,8.75
2018-04-02T21:57:47.598Z,9.00
2018-04-02T22:00:16.640Z,7.68
2018-04-02T22:02:44.870Z,6.90
2018-04-02T22:05:13.170Z,9.48
2018-04-02T22:07:41.448Z,8.43
2018-04-02T22:10:09.682Z,8.70
2018-04-02T22:12:38.719Z,9.50
2018-04-02T22:15:06.954Z,7.12
2018-04-02T22:17:35.978Z,7.87
2018-04-02T22:20:04.254Z,9.43
2018-04-02T22:22:32.493Z,6.72
2018-04-02T22:25:01.502Z,10.05
2018-04-02T22:27:29.743Z,7.05
2018-04-02T22:29:57.981Z,7.87
2018-04-02T22:32:26.245Z,7.62
2018-04-02T22:34:54.529Z,7.97
2018-04-02T22:37:22.761Z,7.12
2018-04-02T22:39:51.766Z,6.93
2018-04-02T22:42:20.003Z,7.53
2018-04-02T22:44:48.343Z,8.25
2018-04-02T22:47:16.694Z,7.18
2018-04-02T22:49:44.933Z,8.43
2018-04-02T22:52:14.678Z,9.15
2018-04-02T22:54:42.922Z,7.80
2018-04-02T22:57:11.249Z,6.80
2018-04-02T22:59:39.494Z,7.47
2018-04-02T23:02:08.527Z,8.00
2018-04-02T23:04:36.776Z,8.13
2018-04-02T23:07:05.770Z,8.43
2018-04-02T23:09:34.066Z,8.95
2018-04-02T23:12:02.315Z,8.18
2018-04-02T23:14:31.305Z,7.82
2018-04-02T23:16:59.597Z,7.75
2018-04-02T23:19:27.833Z,8.63
2018-04-02T23:21:56.074Z,8.15
2018-04-02T23:24:24.459Z,7.87
2018-04-02T23:26:52.574Z,8.63
2018-04-02T23:29:21.597Z,7.55
2018-04-02T23:31:49.858Z,7.57
2018-04-02T23:34:18.089Z,7.87
2018-04-02T23:36:46.321Z,6.05
2018-04-02T23:39:14.598Z,8.85
2018-04-02T23:41:42.873Z,7.30
2018-04-02T23:44:11.154Z,7.87
2018-04-02T23:46:39.426Z,8.98
2018-04-02T23:49:07.702Z,6.70
2018-04-02T23:51:35.933Z,6.00
2018-04-02T23:54:04.973Z,7.53
2018-04-02T23:56:33.207Z,8.25
2018-04-02T23:59:02.233Z,6.15
